Time;durP1;ratioP1;P1;durP2;ratioP2;P2;SDS_P1;SDS_P2;PMS_P1;PMS_P2;Temp;Humidity;BMP_temperature;BMP_pressure;BME280_temperature;BME280_humidity;BME280_pressure;Samples;Min_cycle;Max_cycle;Signal;HPM_P1;HPM_P2
2022/04/17 00:02:01;;;;;;;3.92;2.17;;;7.40;59.50;;;;;;4940036;29;20035;-66
2022/04/17 00:04:27;;;;;;;6.25;3.00;;;7.40;59.50;;;;;;4938793;29;20035;-66
2022/04/17 00:06:53;;;;;;;3.78;2.35;;;7.50;59.60;;;;;;4935967;29;20091;-66
2022/04/17 00:09:18;;;;;;;3.67;2.30;;;7.40;59.60;;;;;;4936073;29;20040;-67
2022/04/17 00:11:45;;;;;;;3.97;2.75;;;7.40;59.60;;;;;;4939988;29;20050;-67
2022/04/17 00:14:10;;;;;;;5.97;2.85;;;7.40;59.60;;;;;;4933723;29;20043;-67
2022/04/17 00:16:37;;;;;;;4.28;2.60;;;7.40;59.50;;;;;;4939347;29;20494;-66
2022/04/17 00:19:02;;;;;;;4.38;2.70;;;7.40;59.50;;;;;;4937744;29;20051;-67
2022/04/17 00:21:28;;;;;;;3.60;2.47;;;7.40;59.50;;;;;;4939155;29;20063;-67
2022/04/17 00:23:56;;;;;;;4.65;2.45;;;7.40;59.60;;;;;;4939597;29;20019;-66
2022/04/17 00:26:41;;;;;;;5.22;2.22;;;7.40;59.50;;;;;;4934303;29;20395;-66
2022/04/17 00:29:27;;;;;;;6.10;2.92;;;7.30;59.60;;;;;;4936269;28;20464;-66
2022/04/17 00:32:13;;;;;;;3.63;2.28;;;7.30;59.60;;;;;;4935305;29;20491;-66
2022/04/17 00:34:58;;;;;;;4.07;2.60;;;7.30;59.70;;;;;;4935170;29;20058;-66
2022/04/17 00:37:24;;;;;;;5.13;2.55;;;7.30;59.70;;;;;;4934599;29;20035;-66
2022/04/17 00:39:51;;;;;;;5.97;3.63;;;7.30;59.70;;;;;;4931849;29;20031;-66
2022/04/17 00:42:16;;;;;;;4.47;2.50;;;7.20;59.80;;;;;;4933952;29;20107;-66
2022/04/17 00:44:41;;;;;;;4.60;2.90;;;7.20;60.00;;;;;;4933748;29;20115;-66
2022/04/17 00:47:08;;;;;;;5.38;2.83;;;7.20;60.00;;;;;;4935863;29;20032;-66
2022/04/17 00:49:34;;;;;;;5.28;2.58;;;7.20;60.00;;;;;;4935105;29;20038;-66
2022/04/17 00:52:00;;;;;;;5.57;2.90;;;7.20;60.10;;;;;;4935969;29;20024;-66
2022/04/17 00:54:28;;;;;;;4.85;2.40;;;7.20;60.50;;;;;;4928983;29;20044;-66
2022/04/17 00:56:55;;;;;;;4.07;2.55;;;7.20;60.60;;;;;;4927094;29;20096;-66
2022/04/17 00:59:22;;;;;;;3.90;2.60;;;7.20;60.50;;;;;;4932496;29;20032;-66
2022/04/17 01:01:47;;;;;;;5.03;2.97;;;7.20;60.60;;;;;;4935767;29;20020;-66
2022/04/17 01:04:14;;;;;;;4.75;2.83;;;7.20;60.60;;;;;;4934728;29;20038;-66
2022/04/17 01:06:40;;;;;;;4.43;2.78;;;7.20;60.60;;;;;;4935257;29;20434;-66
2022/04/17 01:09:06;;;;;;;4.82;2.75;;;7.20;60.60;;;;;;4914955;29;20095;-66
2022/04/17 01:11:32;;;;;;;6.68;3.05;;;7.20;60.60;;;;;;4928263;29;20064;-66
2022/04/17 01:13:58;;;;;;;5.35;2.70;;;7.20;60.60;;;;;;4932232;29;20048;-66
2022/04/17 01:16:25;;;;;;;5.03;2.78;;;7.20;60.70;;;;;;4936011;29;20032;-66
2022/04/17 01:19:00;;;;;;;7.32;2.60;;;7.20;60.70;;;;;;4934824;29;20053;-65
2022/04/17 01:21:27;;;;;;;4.18;2.50;;;7.10;60.70;;;;;;4935296;29;20629;-66
2022/04/17 01:26:58;;;;;;;4.35;2.90;;;7.10;60.70;;;;;;4934938;29;20052;-66
2022/04/17 01:29:27;;;;;;;4.82;2.78;;;7.10;60.80;;;;;;4932894;29;20418;-67
2022/04/17 01:31:54;;;;;;;4.22;2.47;;;7.10;60.90;;;;;;4933123;29;20032;-66
2022/04/17 01:34:21;;;;;;;5.38;2.92;;;7.10;61.00;;;;;;4931909;29;20730;-66
2022/04/17 01:36:49;;;;;;;4.18;2.80;;;7.10;61.10;;;;;;4933464;29;20542;-66
2022/04/17 01:39:14;;;;;;;3.80;2.58;;;7.20;61.40;;;;;;4933188;29;20044;-66
2022/04/17 01:41:41;;;;;;;4.85;2.70;;;7.10;61.40;;;;;;4934383;29;20518;-66
2022/04/17 01:44:07;;;;;;;4.32;2.50;;;7.10;61.60;;;;;;4933492;29;20028;-66
2022/04/17 01:46:33;;;;;;;5.60;3.20;;;7.10;61.60;;;;;;4934469;29;20028;-66
2022/04/17 01:48:59;;;;;;;4.78;2.72;;;7.20;61.70;;;;;;4933975;29;20024;-66
2022/04/17 01:51:25;;;;;;;4.10;2.70;;;7.10;61.80;;;;;;4932917;29;20170;-66
2022/04/17 01:53:50;;;;;;;5.13;2.60;;;7.10;61.90;;;;;;4932825;29;20047;-66
2022/04/17 01:56:16;;;;;;;3.83;2.72;;;7.00;61.80;;;;;;4934157;29;20031;-66
2022/04/17 01:58:41;;;;;;;4.13;2.78;;;7.00;62.00;;;;;;4935169;29;20120;-66
2022/04/17 02:01:07;;;;;;;4.25;2.88;;;7.00;62.00;;;;;;4933797;29;20031;-66
2022/04/17 02:03:32;;;;;;;4.38;3.20;;;7.00;62.00;;;;;;4916929;29;20094;-67
2022/04/17 02:06:00;;;;;;;4.60;2.65;;;7.00;62.10;;;;;;4933468;29;20486;-67
2022/04/17 02:08:27;;;;;;;4.65;2.88;;;7.10;62.30;;;;;;4934076;29;20042;-66
2022/04/17 02:10:53;;;;;;;4.55;2.47;;;7.10;62.30;;;;;;4934207;29;20141;-66
2022/04/17 02:13:19;;;;;;;4.57;2.85;;;7.10;62.30;;;;;;4905775;29;20464;-66
2022/04/17 02:15:44;;;;;;;4.90;2.50;;;7.10;62.20;;;;;;4932735;29;20114;-66
2022/04/17 02:18:11;;;;;;;6.13;3.33;;;7.10;62.30;;;;;;4934186;29;20031;-67
2022/04/17 02:20:37;;;;;;;5.32;3.30;;;7.10;62.30;;;;;;4932656;29;20083;-66
2022/04/17 02:23:02;;;;;;;4.88;3.10;;;7.10;62.40;;;;;;4930473;29;20401;-68
2022/04/17 02:25:28;;;;;;;5.22;3.38;;;7.10;62.40;;;;;;4932689;29;20024;-67
2022/04/17 02:27:53;;;;;;;4.28;2.97;;;7.10;62.30;;;;;;4934949;29;20020;-67
2022/04/17 02:30:19;;;;;;;4.60;3.38;;;7.10;62.30;;;;;;4931077;29;20047;-67
2022/04/17 02:32:46;;;;;;;4.65;2.97;;;7.10;62.40;;;;;;4915658;29;20060;-67
2022/04/17 02:35:11;;;;;;;5.40;3.40;;;7.20;62.70;;;;;;4927953;29;20036;-67
2022/04/17 02:37:37;;;;;;;5.38;3.55;;;7.20;62.80;;;;;;4934378;29;20122;-67
2022/04/17 02:40:03;;;;;;;6.22;4.13;;;7.20;62.90;;;;;;4932982;29;20024;-66
2022/04/17 02:42:28;;;;;;;7.07;4.22;;;7.20;62.90;;;;;;4934083;29;20051;-66
2022/04/17 02:44:54;;;;;;;5.05;3.20;;;7.20;63.00;;;;;;4933335;29;20163;-67
2022/04/17 02:50:04;;;;;;;4.88;2.95;;;7.20;63.20;;;;;;4924737;29;20024;-67
2022/04/17 02:52:30;;;;;;;7.88;3.50;;;7.20;63.30;;;;;;4915351;29;20078;-66
2022/04/17 02:54:55;;;;;;;5.68;3.20;;;7.20;63.50;;;;;;4928906;29;20043;-66
2022/04/17 02:57:21;;;;;;;5.00;3.10;;;7.20;63.60;;;;;;4929930;29;20307;-67
2022/04/17 02:59:49;;;;;;;5.05;3.00;;;7.20;63.80;;;;;;4924779;29;20070;-67
2022/04/17 03:07:44;;;;;;;5.83;3.03;;;7.20;64.00;;;;;;4942126;29;20478;-67
2022/04/17 03:10:09;;;;;;;5.45;3.00;;;7.20;64.10;;;;;;4939373;29;20035;-67
2022/04/17 03:12:38;;;;;;;6.38;3.22;;;7.20;64.40;;;;;;4933584;29;20050;-66
2022/04/17 03:15:06;;;;;;;5.97;3.30;;;7.20;64.60;;;;;;4931969;29;20038;-67
2022/04/17 03:17:31;;;;;;;6.85;3.55;;;7.20;64.70;;;;;;4930197;29;20035;-67
2022/04/17 03:19:57;;;;;;;6.88;4.68;;;7.20;64.80;;;;;;4911994;29;20025;-67
2022/04/17 03:22:26;;;;;;;5.95;4.10;;;7.10;64.80;;;;;;4933819;29;20024;-67
2022/04/17 03:24:52;;;;;;;8.05;4.13;;;7.10;64.90;;;;;;4933330;29;20031;-67
2022/04/17 03:27:18;;;;;;;5.22;3.38;;;7.10;65.00;;;;;;4932708;29;20036;-66
2022/04/17 03:29:43;;;;;;;6.18;3.47;;;7.10;65.20;;;;;;4933598;29;20038;-66
2022/04/17 03:32:09;;;;;;;5.63;3.55;;;7.10;65.20;;;;;;4932779;29;20110;-67
2022/04/17 03:34:35;;;;;;;7.25;3.88;;;7.10;65.30;;;;;;4933203;29;20584;-65
2022/04/17 03:37:00;;;;;;;5.93;3.45;;;7.10;65.30;;;;;;4931699;29;20031;-65
2022/04/17 03:39:26;;;;;;;5.90;3.65;;;7.10;65.40;;;;;;4931932;29;20027;-65
2022/04/17 03:41:54;;;;;;;6.90;3.78;;;7.00;65.50;;;;;;4932311;29;20035;-66
2022/04/17 03:44:20;;;;;;;6.95;4.43;;;7.00;65.80;;;;;;4933024;29;20440;-65
2022/04/17 03:46:47;;;;;;;6.68;3.42;;;6.90;66.00;;;;;;4932546;29;20062;-66
2022/04/17 03:49:13;;;;;;;6.30;3.83;;;6.90;66.20;;;;;;4933779;29;20133;-66
2022/04/17 03:51:39;;;;;;;6.97;3.83;;;7.00;66.30;;;;;;4915138;29;20035;-66
2022/04/17 03:54:04;;;;;;;5.55;3.30;;;6.90;66.50;;;;;;4929475;29;20040;-66
2022/04/17 03:56:33;;;;;;;6.05;3.75;;;6.90;66.70;;;;;;4932460;29;20058;-66
2022/04/17 03:58:59;;;;;;;6.18;3.60;;;6.90;66.80;;;;;;4932694;29;20028;-66
2022/04/17 04:01:26;;;;;;;9.25;4.55;;;6.90;67.00;;;;;;4933471;29;20542;-66
2022/04/17 04:03:52;;;;;;;9.80;4.50;;;6.90;67.00;;;;;;4935994;29;20380;-66
2022/04/17 04:06:21;;;;;;;8.15;4.35;;;6.80;67.10;;;;;;4936465;29;20038;-66
2022/04/17 04:08:48;;;;;;;7.97;4.22;;;6.80;67.30;;;;;;4934859;29;20031;-66
2022/04/17 04:11:13;;;;;;;5.63;3.63;;;6.80;67.30;;;;;;4926991;29;20063;-66
2022/04/17 04:13:39;;;;;;;6.20;3.55;;;6.90;67.40;;;;;;4935363;29;20039;-67
2022/04/17 04:16:04;;;;;;;8.20;4.50;;;6.90;67.60;;;;;;4935680;29;20027;-66
2022/04/17 04:18:30;;;;;;;7.72;3.95;;;6.90;67.80;;;;;;4936621;29;20467;-66
2022/04/17 04:20:55;;;;;;;6.97;3.97;;;6.90;68.00;;;;;;4936107;29;20468;-65
2022/04/17 04:23:22;;;;;;;7.25;3.80;;;6.90;68.20;;;;;;4935882;29;20142;-65
2022/04/17 04:25:47;;;;;;;6.47;3.63;;;6.90;68.30;;;;;;4929988;29;20114;-66
2022/04/17 04:30:57;;;;;;;8.32;4.10;;;6.90;68.40;;;;;;4936512;29;20115;-66
2022/04/17 04:33:22;;;;;;;8.68;4.30;;;6.90;68.50;;;;;;4935396;29;20131;-66
2022/04/17 04:35:48;;;;;;;6.78;4.05;;;7.00;68.50;;;;;;4935854;29;20078;-66
2022/04/17 04:38:13;;;;;;;5.82;3.60;;;7.00;68.60;;;;;;4935384;29;20479;-66
2022/04/17 04:40:39;;;;;;;7.18;4.25;;;7.00;68.80;;;;;;4930226;29;20028;-66
2022/04/17 04:43:04;;;;;;;6.78;3.60;;;6.90;68.60;;;;;;4926484;29;20042;-66
2022/04/17 04:46:15;;;;;;;6.93;3.80;;;7.00;68.80;;;;;;4918541;29;20028;-66
2022/04/17 04:49:29;;;;;;;6.72;3.85;;;7.00;68.90;;;;;;4928585;29;20055;-66
2022/04/17 04:51:01;;;;;;;8.18;4.45;;;7.00;69.00;;;;;;4935127;29;20031;-66
2022/04/17 04:53:28;;;;;;;5.45;3.30;;;7.00;69.10;;;;;;4935632;29;20040;-66
2022/04/17 04:55:54;;;;;;;5.80;4.07;;;7.10;69.20;;;;;;4928093;29;20074;-66
2022/04/17 04:58:20;;;;;;;6.32;4.28;;;7.10;69.10;;;;;;4920300;29;20032;-66
2022/04/17 05:00:46;;;;;;;5.93;3.80;;;7.10;69.00;;;;;;4922502;29;20038;-65
2022/04/17 05:03:11;;;;;;;6.78;3.72;;;7.20;69.10;;;;;;4935488;29;20040;-65
2022/04/17 05:05:37;;;;;;;5.97;3.70;;;7.30;69.00;;;;;;4932997;29;20378;-65
2022/04/17 05:08:02;;;;;;;7.60;3.63;;;7.30;69.00;;;;;;4928523;29;20126;-65
2022/04/17 05:10:28;;;;;;;7.93;3.55;;;7.40;68.90;;;;;;4933639;29;20110;-65
2022/04/17 05:12:53;;;;;;;6.50;3.88;;;7.40;68.90;;;;;;4933604;29;20070;-65
2022/04/17 05:15:21;;;;;;;5.90;3.67;;;7.40;69.10;;;;;;4920483;29;20047;-66
2022/04/17 05:17:47;;;;;;;6.00;3.67;;;7.50;69.30;;;;;;4915105;29;20035;-66
2022/04/17 05:20:15;;;;;;;6.25;3.80;;;7.50;69.10;;;;;;4918091;29;20462;-66
2022/04/17 05:22:40;;;;;;;7.05;3.40;;;7.60;68.90;;;;;;4935596;29;20091;-66
2022/04/17 05:25:06;;;;;;;6.32;3.40;;;7.70;68.80;;;;;;4934117;29;20040;-65
2022/04/17 05:27:32;;;;;;;4.82;3.33;;;7.70;68.70;;;;;;4928681;29;20031;-65
2022/04/17 05:29:57;;;;;;;5.93;3.80;;;7.80;68.60;;;;;;4927160;29;20056;-65
2022/04/17 05:32:23;;;;;;;7.70;4.45;;;7.80;68.60;;;;;;4934116;29;20110;-65
2022/04/17 05:34:49;;;;;;;6.15;4.03;;;7.80;68.50;;;;;;4928602;29;20042;-67
2022/04/17 05:37:15;;;;;;;6.63;4.10;;;7.90;68.50;;;;;;4915426;29;20096;-68
2022/04/17 05:39:41;;;;;;;7.45;3.92;;;8.00;68.50;;;;;;4929923;29;20047;-67
2022/04/17 05:42:07;;;;;;;6.45;3.65;;;8.00;68.20;;;;;;4930228;29;20505;-66
2022/04/17 05:44:34;;;;;;;5.90;3.88;;;8.10;68.10;;;;;;4934864;29;20024;-66
2022/04/17 05:46:59;;;;;;;5.13;3.72;;;8.20;68.10;;;;;;4921759;29;20174;-67
2022/04/17 05:49:25;;;;;;;8.63;3.90;;;8.20;68.00;;;;;;4918996;29;20031;-66
2022/04/17 05:51:51;;;;;;;5.10;3.72;;;8.20;68.10;;;;;;4923951;29;20039;-66
2022/04/17 05:54:16;;;;;;;6.03;3.85;;;8.30;68.10;;;;;;4912962;29;20123;-64
2022/04/17 05:56:42;;;;;;;6.43;4.35;;;8.30;67.90;;;;;;4927225;29;20287;-66
2022/04/17 05:59:08;;;;;;;6.30;3.85;;;8.40;67.90;;;;;;4913317;29;20035;-66
2022/04/17 06:01:34;;;;;;;6.10;3.67;;;8.40;68.00;;;;;;4932139;29;20118;-66
2022/04/17 06:04:01;;;;;;;6.15;3.63;;;8.50;68.00;;;;;;4933870;29;20120;-66
2022/04/17 06:06:27;;;;;;;5.78;4.20;;;8.50;68.10;;;;;;4930144;29;20039;-67
2022/04/17 06:08:52;;;;;;;5.97;3.65;;;8.60;68.10;;;;;;4933794;29;20399;-67
2022/04/17 06:11:18;;;;;;;6.40;3.90;;;8.70;68.20;;;;;;4931440;29;20131;-67
2022/04/17 06:13:43;;;;;;;8.32;3.92;;;8.70;68.00;;;;;;4930757;29;20098;-66
2022/04/17 06:16:09;;;;;;;5.68;4.07;;;8.80;67.80;;;;;;4931228;29;20074;-66
2022/04/17 06:18:34;;;;;;;5.57;3.80;;;8.80;67.60;;;;;;4930514;29;20036;-67
2022/04/17 06:21:00;;;;;;;5.65;3.75;;;8.90;67.60;;;;;;4931727;29;20526;-67
2022/04/17 06:23:27;;;;;;;6.90;4.72;;;9.00;67.50;;;;;;4931971;29;20119;-66
2022/04/17 06:25:53;;;;;;;6.13;3.97;;;9.00;67.30;;;;;;4912151;29;20070;-66
2022/04/17 06:28:18;;;;;;;6.03;4.07;;;9.10;67.10;;;;;;4925798;29;20113;-66
2022/04/17 06:30:44;;;;;;;7.20;4.45;;;9.10;66.90;;;;;;4921803;29;20020;-66
2022/04/17 06:33:09;;;;;;;6.55;4.05;;;9.20;66.60;;;;;;4924831;29;20063;-66
2022/04/17 06:35:35;;;;;;;6.22;3.60;;;9.20;66.10;;;;;;4931668;29;20020;-67
2022/04/17 06:38:02;;;;;;;5.65;3.95;;;9.20;65.70;;;;;;4933142;29;20579;-66
2022/04/17 06:40:33;;;;;;;5.70;3.78;;;9.20;65.50;;;;;;4927947;29;20058;-65
2022/04/17 06:43:05;;;;;;;5.65;3.20;;;9.30;65.10;;;;;;4932477;29;20040;-65
2022/04/17 06:45:31;;;;;;;4.28;2.90;;;9.30;64.40;;;;;;4932083;29;20400;-66
2022/04/17 06:47:57;;;;;;;5.88;3.72;;;9.30;64.60;;;;;;4931778;29;20035;-66
2022/04/17 06:50:23;;;;;;;7.22;3.63;;;9.30;64.50;;;;;;4920457;29;20031;-66
2022/04/17 06:52:49;;;;;;;6.80;3.70;;;9.50;64.50;;;;;;4929511;29;20043;-66
2022/04/17 06:55:15;;;;;;;4.57;2.90;;;9.40;64.20;;;;;;4930779;29;20051;-66
2022/04/17 06:57:48;;;;;;;3.92;2.67;;;9.50;64.00;;;;;;4931774;29;20074;-66
2022/04/17 07:00:15;;;;;;;2.80;2.10;;;9.50;63.20;;;;;;4926827;29;20031;-67
2022/04/17 07:02:42;;;;;;;4.45;2.60;;;9.60;63.20;;;;;;4932617;29;20115;-68
2022/04/17 07:05:08;;;;;;;6.40;3.03;;;9.60;62.90;;;;;;4929787;29;20111;-68
2022/04/17 07:07:34;;;;;;;4.43;2.72;;;9.70;63.30;;;;;;4923458;29;20086;-70
2022/04/17 07:10:01;;;;;;;4.38;2.63;;;9.80;63.50;;;;;;4927829;29;20044;-69
2022/04/17 07:12:26;;;;;;;3.30;2.25;;;9.80;62.90;;;;;;4926838;29;20055;-66
2022/04/17 07:14:52;;;;;;;3.47;2.53;;;9.90;62.50;;;;;;4930951;29;20054;-66
2022/04/17 07:17:21;;;;;;;3.60;2.50;;;10.00;61.80;;;;;;4925085;29;20059;-67
2022/04/17 07:19:46;;;;;;;3.97;2.22;;;10.00;61.80;;;;;;4932462;29;20424;-68
2022/04/17 07:22:13;;;;;;;4.50;2.80;;;10.00;61.60;;;;;;4929241;29;20031;-67
2022/04/17 07:24:40;;;;;;;4.55;2.30;;;10.10;61.50;;;;;;4932560;29;20031;-66
2022/04/17 07:27:06;;;;;;;3.60;2.33;;;10.10;61.10;;;;;;4932190;29;20039;-67
2022/04/17 07:29:31;;;;;;;3.00;2.30;;;10.10;60.90;;;;;;4929672;29;20396;-67
2022/04/17 07:31:57;;;;;;;3.67;2.67;;;10.20;60.80;;;;;;4922701;29;20115;-67
2022/04/17 07:34:22;;;;;;;5.18;2.20;;;10.20;60.30;;;;;;4923743;29;20032;-67
2022/04/17 07:36:52;;;;;;;3.03;2.13;;;10.20;60.30;;;;;;4909009;29;20394;-68
2022/04/17 07:39:18;;;;;;;3.20;2.28;;;10.30;60.50;;;;;;4925597;29;20040;-67
2022/04/17 07:41:45;;;;;;;3.67;2.15;;;10.30;60.60;;;;;;4909766;29;20584;-72
2022/04/17 07:44:11;;;;;;;5.88;2.40;;;10.40;61.40;;;;;;4936157;29;20114;-68
2022/04/17 07:46:38;;;;;;;4.05;2.45;;;10.60;61.00;;;;;;4933913;29;20191;-67
2022/04/17 07:49:04;;;;;;;3.83;2.47;;;10.60;60.10;;;;;;4935995;29;20419;-67
2022/04/17 07:51:29;;;;;;;3.70;2.70;;;10.70;60.10;;;;;;4932199;29;20142;-67
2022/04/17 07:53:55;;;;;;;8.23;2.83;;;10.70;59.90;;;;;;4936362;29;20048;-68
2022/04/17 07:56:21;;;;;;;3.45;2.33;;;10.80;60.10;;;;;;4932763;29;20027;-67
2022/04/17 07:58:46;;;;;;;3.10;1.90;;;10.80;60.00;;;;;;4917586;29;20028;-67
2022/04/17 08:01:14;;;;;;;3.65;2.10;;;11.00;59.70;;;;;;4933785;29;20036;-67
2022/04/17 08:06:05;;;;;;;4.63;2.30;;;11.10;59.00;;;;;;4925724;29;20028;-67
2022/04/17 08:08:31;;;;;;;3.08;2.10;;;11.10;58.90;;;;;;4917778;29;20059;-68
2022/04/17 08:10:57;;;;;;;6.70;2.00;;;11.20;58.10;;;;;;4923966;29;20027;-68
2022/04/17 08:13:23;;;;;;;5.05;2.22;;;11.20;58.20;;;;;;4919614;29;20076;-67
2022/04/17 08:15:50;;;;;;;3.38;2.10;;;11.30;58.40;;;;;;4934880;29;20585;-68
2022/04/17 08:18:15;;;;;;;4.30;2.30;;;11.40;58.80;;;;;;4934368;29;20051;-67
2022/04/17 08:20:41;;;;;;;3.33;2.20;;;11.50;58.50;;;;;;4934377;29;20042;-67
2022/04/17 08:23:07;;;;;;;4.28;2.53;;;11.60;58.40;;;;;;4935333;29;20075;-67
2022/04/17 08:25:35;;;;;;;4.60;2.20;;;11.60;58.60;;;;;;4920281;29;20032;-67
2022/04/17 08:28:02;;;;;;;6.25;2.83;;;11.70;58.40;;;;;;4932153;29;20090;-67
2022/04/17 08:30:31;;;;;;;4.25;2.88;;;11.70;57.50;;;;;;4934458;29;20036;-68
2022/04/17 08:32:58;;;;;;;4.47;2.83;;;11.80;57.10;;;;;;4934210;29;20032;-68
2022/04/17 08:35:24;;;;;;;5.00;3.03;;;11.70;57.30;;;;;;4933116;29;20185;-69
2022/04/17 08:37:50;;;;;;;5.47;3.45;;;11.90;57.40;;;;;;4933630;29;20023;-67
2022/04/17 08:40:16;;;;;;;5.22;3.08;;;11.90;57.30;;;;;;4933886;29;20106;-68
2022/04/17 08:42:42;;;;;;;5.85;3.13;;;12.00;57.40;;;;;;4935474;29;20487;-69
2022/04/17 08:45:09;;;;;;;6.22;3.40;;;12.00;57.50;;;;;;4933990;29;20076;-67
2022/04/17 08:47:38;;;;;;;5.60;2.92;;;12.00;57.60;;;;;;4922618;29;20067;-67
2022/04/17 08:50:08;;;;;;;4.78;2.80;;;12.10;57.90;;;;;;4938918;29;20034;-67
2022/04/17 08:52:35;;;;;;;4.85;2.70;;;12.10;57.40;;;;;;4925180;29;20036;-68
2022/04/17 08:55:01;;;;;;;6.00;3.55;;;12.10;57.30;;;;;;4917511;29;20028;-67
2022/04/17 08:57:27;;;;;;;5.13;2.78;;;12.10;57.20;;;;;;4933864;29;20082;-67
2022/04/17 08:59:52;;;;;;;7.47;3.72;;;12.20;57.70;;;;;;4936173;29;20438;-68
2022/04/17 09:02:18;;;;;;;6.90;3.50;;;12.20;57.70;;;;;;4916389;29;20028;-69
2022/04/17 09:04:45;;;;;;;6.45;3.22;;;12.30;57.50;;;;;;4934850;29;20027;-67
2022/04/17 09:07:11;;;;;;;5.15;2.85;;;12.40;57.60;;;;;;4933018;29;20498;-70
2022/04/17 09:09:47;;;;;;;5.88;3.20;;;12.50;57.60;;;;;;4919096;29;20459;-69
2022/04/17 09:12:24;;;;;;;4.47;2.47;;;12.60;57.60;;;;;;4934359;29;20044;-67
2022/04/17 09:14:50;;;;;;;5.13;3.30;;;12.60;57.20;;;;;;4931044;29;20071;-68
2022/04/17 09:17:18;;;;;;;6.53;3.53;;;12.70;57.00;;;;;;4934819;29;20047;-67
2022/04/17 09:19:44;;;;;;;5.88;3.15;;;12.70;56.60;;;;;;4933877;29;20035;-67
2022/04/17 09:22:09;;;;;;;5.95;3.47;;;12.70;56.50;;;;;;4923127;29;20360;-66
2022/04/17 09:24:40;;;;;;;7.28;3.35;;;12.70;56.60;;;;;;4930557;29;20059;-65
2022/04/17 09:27:07;;;;;;;5.78;3.45;;;12.70;56.50;;;;;;4930375;29;20044;-65
2022/04/17 09:29:36;;;;;;;5.53;3.10;;;12.80;56.60;;;;;;4928720;29;20507;-65
2022/04/17 09:32:05;;;;;;;5.47;2.80;;;13.00;56.40;;;;;;4929301;29;20034;-66
2022/04/17 09:34:52;;;;;;;4.70;2.80;;;13.10;56.00;;;;;;4924099;29;20135;-66
2022/04/17 09:37:19;;;;;;;4.53;2.60;;;13.20;55.70;;;;;;4932363;29;20099;-66
2022/04/17 09:39:46;;;;;;;4.13;2.50;;;13.20;55.50;;;;;;4934389;29;20039;-66
2022/04/17 09:42:12;;;;;;;6.75;2.97;;;13.30;54.80;;;;;;4928219;29;20028;-66
2022/04/17 09:44:49;;;;;;;3.85;2.63;;;13.20;54.60;;;;;;4932548;29;20039;-66
2022/04/17 09:47:31;;;;;;;5.00;2.67;;;13.20;54.30;;;;;;4919414;29;20111;-67
2022/04/17 09:49:59;;;;;;;5.68;3.38;;;13.20;55.10;;;;;;4916637;29;20483;-65
2022/04/17 09:52:45;;;;;;;5.53;2.60;;;13.20;55.10;;;;;;4918587;29;20066;-66
2022/04/17 09:55:12;;;;;;;5.82;2.65;;;13.30;55.10;;;;;;4933504;29;20046;-66
2022/04/17 09:57:43;;;;;;;4.85;2.63;;;13.30;54.50;;;;;;4932141;29;20038;-61
2022/04/17 10:00:12;;;;;;;5.60;2.90;;;13.40;55.20;;;;;;4931500;29;20438;-71
2022/04/17 10:02:40;;;;;;;5.57;2.60;;;13.50;55.20;;;;;;4929578;29;20023;-66
2022/04/17 10:05:17;;;;;;;4.13;2.45;;;13.70;55.00;;;;;;4929230;29;20497;-66
2022/04/17 10:07:44;;;;;;;6.70;2.55;;;13.80;54.30;;;;;;4931171;29;20035;-65
2022/04/17 10:10:11;;;;;;;4.72;2.50;;;13.80;53.80;;;;;;4929875;29;20039;-65
2022/04/17 10:12:39;;;;;;;4.93;2.85;;;13.80;53.90;;;;;;4932650;29;20062;-66
2022/04/17 10:15:06;;;;;;;5.53;2.40;;;13.70;53.20;;;;;;4932045;29;20035;-66
2022/04/17 10:17:36;;;;;;;5.80;2.90;;;13.80;53.60;;;;;;4926725;29;20114;-66
2022/04/17 10:20:06;;;;;;;4.75;2.55;;;13.80;53.40;;;;;;4939501;29;20582;-65
2022/04/17 10:22:33;;;;;;;3.75;2.53;;;13.80;53.30;;;;;;4933631;29;20034;-66
2022/04/17 10:24:59;;;;;;;3.83;2.17;;;13.80;53.60;;;;;;4934519;29;20479;-66
2022/04/17 10:27:30;;;;;;;4.97;2.63;;;13.90;53.00;;;;;;4934260;29;20039;-66
2022/04/17 10:30:04;;;;;;;3.78;2.15;;;13.90;52.70;;;;;;4934206;29;20031;-66
2022/04/17 10:32:33;;;;;;;4.55;2.45;;;13.90;53.10;;;;;;4933713;29;20028;-66
2022/04/17 10:35:20;;;;;;;6.50;2.60;;;14.00;53.40;;;;;;4932971;29;20035;-66
2022/04/17 10:38:20;;;;;;;4.97;2.53;;;14.10;53.40;;;;;;4934773;29;20027;-66
2022/04/17 10:41:18;;;;;;;4.18;2.60;;;14.20;52.90;;;;;;4928692;29;20036;-66
2022/04/17 10:43:46;;;;;;;14.80;2.72;;;14.30;53.30;;;;;;4925780;29;20046;-66
2022/04/17 10:46:15;;;;;;;3.22;2.00;;;14.40;52.80;;;;;;4924172;29;20032;-65
2022/04/17 10:48:48;;;;;;;4.82;1.90;;;14.40;51.60;;;;;;4935762;29;20102;-66
2022/04/17 10:51:22;;;;;;;4.63;2.10;;;14.40;52.00;;;;;;4932163;29;20122;-66
2022/04/17 10:54:07;;;;;;;4.25;2.40;;;14.50;51.80;;;;;;4930613;29;20035;-66
2022/04/17 10:56:58;;;;;;;3.13;1.80;;;14.50;51.30;;;;;;4919925;29;20035;-66
2022/04/17 10:59:33;;;;;;;4.15;2.13;;;14.50;51.40;;;;;;4920221;29;20043;-66
2022/04/17 11:02:07;;;;;;;2.80;1.73;;;14.60;51.40;;;;;;4928548;29;20024;-65
2022/04/17 11:04:55;;;;;;;4.68;2.50;;;14.70;51.40;;;;;;4932829;29;20038;-67
2022/04/17 11:07:23;;;;;;;4.03;2.08;;;14.80;51.50;;;;;;4931940;29;20393;-67
2022/04/17 11:10:06;;;;;;;3.42;2.17;;;14.90;51.10;;;;;;4932497;29;20064;-65
2022/04/17 11:12:46;;;;;;;3.08;1.92;;;14.90;50.80;;;;;;4933317;29;20063;-66
2022/04/17 11:15:12;;;;;;;4.40;2.17;;;15.00;51.20;;;;;;4927092;29;20039;-65
2022/04/17 11:17:38;;;;;;;4.57;2.00;;;15.10;51.20;;;;;;4921568;29;20390;-66
2022/04/17 11:20:07;;;;;;;3.38;2.00;;;15.20;50.80;;;;;;4928888;29;20036;-66
2022/04/17 11:22:34;;;;;;;3.70;2.05;;;15.20;49.80;;;;;;4922964;29;20039;-66
2022/04/17 11:25:02;;;;;;;2.60;1.58;;;15.30;49.00;;;;;;4933190;29;20046;-65
2022/04/17 11:27:41;;;;;;;3.35;1.73;;;15.30;47.90;;;;;;4932872;29;20030;-65
2022/04/17 11:30:27;;;;;;;2.20;1.55;;;15.30;48.50;;;;;;4933785;29;20035;-65
2022/04/17 11:32:53;;;;;;;3.97;1.70;;;15.30;47.50;;;;;;4924221;29;20032;-66
2022/04/17 11:35:24;;;;;;;4.28;1.80;;;15.30;48.20;;;;;;4933832;29;20118;-66
2022/04/17 11:37:54;;;;;;;2.83;1.70;;;15.30;48.50;;;;;;4933534;29;20023;-66
2022/04/17 11:40:21;;;;;;;2.22;1.60;;;15.40;48.00;;;;;;4932027;29;20031;-66
2022/04/17 11:42:49;;;;;;;5.47;1.75;;;15.30;48.00;;;;;;4915942;29;20036;-66
2022/04/17 11:45:17;;;;;;;4.32;2.63;;;15.30;47.20;;;;;;4933539;29;20111;-66
2022/04/17 11:47:45;;;;;;;3.92;2.45;;;15.30;47.20;;;;;;4931786;29;20487;-67
2022/04/17 11:50:18;;;;;;;4.20;2.10;;;15.40;47.40;;;;;;4933829;29;20040;-67
2022/04/17 11:52:47;;;;;;;3.97;2.20;;;15.40;47.30;;;;;;4926291;29;20410;-67
2022/04/17 11:55:13;;;;;;;3.10;1.80;;;15.40;47.80;;;;;;4934786;29;20055;-67
2022/04/17 11:57:38;;;;;;;4.82;2.25;;;15.40;47.60;;;;;;4926476;29;20479;-66
2022/04/17 12:00:05;;;;;;;3.92;1.98;;;15.30;47.80;;;;;;4923565;29;20035;-65
2022/04/17 12:02:31;;;;;;;3.20;1.80;;;15.30;48.20;;;;;;4931281;29;20117;-66
2022/04/17 12:05:08;;;;;;;3.72;2.05;;;15.30;47.80;;;;;;4929496;29;20104;-66
2022/04/17 12:07:34;;;;;;;3.03;1.73;;;15.40;48.00;;;;;;4933694;29;20103;-66
2022/04/17 12:10:13;;;;;;;2.58;1.80;;;15.30;47.70;;;;;;4933219;29;20059;-66
2022/04/17 12:12:47;;;;;;;4.15;2.00;;;15.20;47.90;;;;;;4932438;29;20076;-66
2022/04/17 12:15:15;;;;;;;1.98;1.30;;;15.10;47.60;;;;;;4932940;29;20490;-66
2022/04/17 12:17:41;;;;;;;2.72;1.67;;;15.00;48.70;;;;;;4932307;29;20047;-66
2022/04/17 12:20:09;;;;;;;3.35;1.80;;;15.10;48.00;;;;;;4928009;29;20034;-66
2022/04/17 12:22:38;;;;;;;2.92;1.67;;;15.10;48.20;;;;;;4929430;29;20032;-66
2022/04/17 12:25:14;;;;;;;3.78;1.70;;;15.10;46.90;;;;;;4925468;29;20024;-65
2022/04/17 12:27:40;;;;;;;2.65;1.85;;;15.10;46.60;;;;;;4934298;29;20040;-66
2022/04/17 12:30:06;;;;;;;2.67;1.67;;;15.10;47.00;;;;;;4933996;29;20111;-67
2022/04/17 12:32:31;;;;;;;3.20;1.80;;;15.20;47.40;;;;;;4936780;29;20050;-65
2022/04/17 12:34:59;;;;;;;2.80;1.80;;;15.30;47.30;;;;;;4929375;29;20042;-66
2022/04/17 12:37:32;;;;;;;3.10;1.80;;;15.30;47.20;;;;;;4933384;29;20031;-66
2022/04/17 12:40:12;;;;;;;3.33;1.95;;;15.40;47.00;;;;;;4931996;29;20383;-68
2022/04/17 12:42:40;;;;;;;3.60;1.90;;;15.50;47.40;;;;;;4932726;29;20619;-67
2022/04/17 12:45:07;;;;;;;3.17;2.20;;;15.50;47.70;;;;;;4929755;29;20686;-67
2022/04/17 12:47:36;;;;;;;2.80;1.90;;;15.50;47.40;;;;;;4931921;29;20111;-66
2022/04/17 12:50:03;;;;;;;3.05;1.90;;;15.60;47.80;;;;;;4934151;29;20032;-67
2022/04/17 12:52:28;;;;;;;2.92;1.67;;;15.60;47.50;;;;;;4933035;29;20035;-66
2022/04/17 12:54:56;;;;;;;4.82;2.08;;;15.70;47.70;;;;;;4942775;29;20032;-67
2022/04/17 12:57:22;;;;;;;2.67;1.77;;;15.70;46.40;;;;;;4928129;29;20127;-67
2022/04/17 12:59:52;;;;;;;3.65;1.55;;;15.70;46.80;;;;;;4932541;29;20146;-66
2022/04/17 13:02:28;;;;;;;4.30;2.28;;;15.70;46.60;;;;;;4930624;29;20031;-67
2022/04/17 13:04:59;;;;;;;3.97;1.98;;;15.80;46.90;;;;;;4935342;29;20478;-67
2022/04/17 13:07:32;;;;;;;2.97;1.65;;;15.90;46.40;;;;;;4933592;29;20503;-67
2022/04/17 13:10:01;;;;;;;3.40;1.80;;;16.00;46.40;;;;;;4933408;29;20475;-68
2022/04/17 13:12:41;;;;;;;2.75;2.00;;;16.20;46.40;;;;;;4933386;29;20055;-67
2022/04/17 13:15:07;;;;;;;4.65;1.75;;;16.30;45.80;;;;;;4927023;29;20518;-66